Time;durP1;ratioP1;P1;durP2;ratioP2;P2;SDS_P1;SDS_P2;PMS_P1;PMS_P2;Temp;Humidity;BMP_temperature;BMP_pressure;BME280_temperature;BME280_humidity;BME280_pressure;Samples;Min_cycle;Max_cycle;Signal;HPM_P1;HPM_P2
2021/08/22 00:01:22;;;;;;;10.15;6.25;;;26.90;51.20;;;;;;4959697;28;20039;-55
2021/08/22 00:03:48;;;;;;;10.45;6.20;;;26.80;51.30;;;;;;4960056;29;20512;-51
2021/08/22 00:06:14;;;;;;;9.38;6.05;;;26.80;51.30;;;;;;4958755;29;20629;-49
2021/08/22 00:08:40;;;;;;;17.75;6.53;;;26.80;51.30;;;;;;4959548;28;20028;-52
2021/08/22 00:11:06;;;;;;;7.25;6.00;;;26.80;51.40;;;;;;4959721;28;20035;-53
2021/08/22 00:13:33;;;;;;;10.25;6.30;;;26.80;51.50;;;;;;4958012;29;20487;-48
2021/08/22 00:15:59;;;;;;;10.25;6.10;;;26.80;51.60;;;;;;4959614;28;20023;-48
2021/08/22 00:18:25;;;;;;;11.02;6.47;;;26.70;51.50;;;;;;4959221;28;20031;-52
2021/08/22 00:20:50;;;;;;;11.07;6.38;;;26.70;51.60;;;;;;4960079;29;20027;-51
2021/08/22 00:23:16;;;;;;;8.95;6.32;;;26.70;51.70;;;;;;4959038;28;20035;-50
2021/08/22 00:25:42;;;;;;;9.55;6.07;;;26.70;51.70;;;;;;4959713;28;20046;-48
2021/08/22 00:28:07;;;;;;;9.57;5.85;;;26.70;51.70;;;;;;4959670;29;20027;-48
2021/08/22 00:30:34;;;;;;;10.13;6.38;;;26.70;51.70;;;;;;4959111;29;20113;-53
2021/08/22 00:33:00;;;;;;;10.43;6.13;;;26.70;51.80;;;;;;4958634;29;20028;-48
2021/08/22 00:35:26;;;;;;;9.38;5.63;;;26.70;51.80;;;;;;4959155;28;20504;-48
2021/08/22 00:37:51;;;;;;;9.57;5.25;;;26.60;51.90;;;;;;4959966;29;20024;-47
2021/08/22 00:40:17;;;;;;;10.05;6.40;;;26.60;51.90;;;;;;4958855;29;20459;-46
2021/08/22 00:42:46;;;;;;;10.23;6.80;;;26.60;52.00;;;;;;4958628;28;20035;-49
2021/08/22 00:45:13;;;;;;;8.70;6.18;;;26.60;52.00;;;;;;4958257;29;20023;-51
2021/08/22 00:47:43;;;;;;;9.55;6.13;;;26.50;52.00;;;;;;4957980;28;20126;-46
2021/08/22 00:50:12;;;;;;;9.60;6.20;;;26.50;52.10;;;;;;4959544;29;20485;-51
2021/08/22 00:52:39;;;;;;;11.90;6.32;;;26.50;52.00;;;;;;4959284;29;20038;-52
2021/08/22 00:55:06;;;;;;;11.70;5.68;;;26.50;52.10;;;;;;4958332;28;20086;-47
2021/08/22 00:57:33;;;;;;;10.05;6.07;;;26.40;52.10;;;;;;4956465;28;20024;-52
2021/08/22 01:00:17;;;;;;;9.05;6.10;;;26.40;52.20;;;;;;4955629;29;20129;-48
2021/08/22 01:02:49;;;;;;;9.45;6.18;;;26.40;52.30;;;;;;4956860;29;20055;-47
2021/08/22 01:05:17;;;;;;;8.82;5.68;;;26.40;52.30;;;;;;4956368;29;20031;-49
2021/08/22 01:08:04;;;;;;;9.32;5.25;;;26.40;52.30;;;;;;4956464;29;20121;-49
2021/08/22 01:10:32;;;;;;;7.40;5.07;;;26.30;52.30;;;;;;4956022;29;20031;-53
2021/08/22 01:13:13;;;;;;;7.60;5.10;;;26.30;52.40;;;;;;4956572;29;20031;-46
2021/08/22 01:15:43;;;;;;;10.02;6.22;;;26.30;52.50;;;;;;4955593;29;20035;-48
2021/08/22 01:18:27;;;;;;;9.10;5.68;;;26.30;52.40;;;;;;4955760;29;20520;-49
2021/08/22 01:21:21;;;;;;;8.52;5.07;;;26.30;52.50;;;;;;4955011;29;20046;-52
2021/08/22 01:24:02;;;;;;;8.18;5.35;;;26.20;52.50;;;;;;4956170;29;20038;-50
2021/08/22 01:26:34;;;;;;;10.07;5.85;;;26.20;52.50;;;;;;4955600;29;20032;-49
2021/08/22 01:29:01;;;;;;;8.10;5.03;;;26.20;52.50;;;;;;4955980;29;20031;-53
2021/08/22 01:31:32;;;;;;;11.90;5.22;;;26.20;52.50;;;;;;4954207;29;20027;-52
2021/08/22 01:34:00;;;;;;;8.27;5.15;;;26.20;52.60;;;;;;4955905;29;20078;-50
2021/08/22 01:36:26;;;;;;;8.93;5.57;;;26.10;52.50;;;;;;4955707;29;20047;-49
2021/08/22 01:38:54;;;;;;;10.75;5.35;;;26.20;52.60;;;;;;4956036;29;20023;-47
2021/08/22 01:41:23;;;;;;;8.70;5.28;;;26.20;52.60;;;;;;4954158;29;20047;-49
2021/08/22 01:43:50;;;;;;;8.40;5.55;;;26.20;52.50;;;;;;4955591;29;20032;-46
2021/08/22 01:46:19;;;;;;;8.95;5.30;;;26.20;52.50;;;;;;4954502;29;20119;-47
2021/08/22 01:48:45;;;;;;;7.10;5.50;;;26.10;52.50;;;;;;4955576;29;20027;-49
2021/08/22 01:51:12;;;;;;;9.18;5.85;;;26.10;52.60;;;;;;4955544;29;20031;-48
2021/08/22 01:53:38;;;;;;;10.63;5.78;;;26.10;52.60;;;;;;4953797;29;20023;-50
2021/08/22 01:56:04;;;;;;;8.88;5.90;;;26.10;52.70;;;;;;4955866;29;20027;-49
2021/08/22 01:58:30;;;;;;;6.97;4.88;;;26.10;52.70;;;;;;4937830;29;20090;-45
2021/08/22 02:00:56;;;;;;;8.85;5.10;;;26.10;52.70;;;;;;4954116;29;20035;-46
2021/08/22 02:04:23;;;;;;;9.27;5.65;;;26.00;52.70;;;;;;4954649;29;20039;-47
2021/08/22 02:06:54;;;;;;;9.52;5.57;;;26.00;52.80;;;;;;4897336;29;20046;-51
2021/08/22 02:09:25;;;;;;;9.57;5.70;;;26.00;52.70;;;;;;4914830;29;20035;-51
2021/08/22 02:11:59;;;;;;;7.03;5.13;;;26.00;52.80;;;;;;4942933;29;20043;-47
2021/08/22 02:14:26;;;;;;;9.93;4.72;;;25.90;52.90;;;;;;4954798;29;20114;-49
2021/08/22 02:16:55;;;;;;;7.63;5.03;;;26.00;52.90;;;;;;4953851;29;20086;-51
2021/08/22 02:19:23;;;;;;;9.90;5.22;;;25.90;52.90;;;;;;4954856;29;20119;-52
2021/08/22 02:21:50;;;;;;;8.48;5.38;;;25.90;53.00;;;;;;4955207;29;20042;-47
2021/08/22 02:24:15;;;;;;;7.63;5.40;;;25.90;53.00;;;;;;4954003;29;20058;-51
2021/08/22 02:26:41;;;;;;;7.88;5.45;;;25.90;52.90;;;;;;4954189;29;20380;-52
2021/08/22 02:29:08;;;;;;;8.23;5.82;;;25.90;53.00;;;;;;4954704;29;20108;-46
2021/08/22 02:31:34;;;;;;;8.65;5.53;;;25.90;53.00;;;;;;4954360;29;20102;-49
2021/08/22 02:34:00;;;;;;;9.10;5.53;;;25.90;52.90;;;;;;4953545;29;20109;-45
2021/08/22 02:36:27;;;;;;;10.57;4.88;;;25.90;52.90;;;;;;4954241;29;20031;-51
2021/08/22 02:38:53;;;;;;;6.05;5.00;;;25.90;52.90;;;;;;4954967;29;20035;-47
2021/08/22 02:41:19;;;;;;;8.65;5.57;;;25.90;53.00;;;;;;4953672;29;20408;-48
2021/08/22 02:43:46;;;;;;;9.35;5.20;;;25.90;53.00;;;;;;4954465;29;20023;-49
2021/08/22 02:46:11;;;;;;;8.70;5.20;;;25.90;53.00;;;;;;4954503;29;20027;-49
2021/08/22 02:48:55;;;;;;;7.53;5.05;;;25.90;53.10;;;;;;4954391;29;20023;-49
2021/08/22 02:51:21;;;;;;;9.60;5.03;;;25.80;53.20;;;;;;4954488;29;20038;-47
2021/08/22 02:53:47;;;;;;;6.45;4.68;;;25.80;53.00;;;;;;4953951;29;20047;-48
2021/08/22 02:56:12;;;;;;;10.50;5.32;;;25.80;53.10;;;;;;4953268;29;20050;-48
2021/08/22 02:58:38;;;;;;;9.70;5.15;;;25.80;53.00;;;;;;4953745;29;20406;-51
2021/08/22 03:01:04;;;;;;;7.95;4.68;;;25.80;53.00;;;;;;4954501;29;20066;-51
2021/08/22 03:03:29;;;;;;;6.43;5.00;;;25.80;53.00;;;;;;4953742;29;20030;-52
2021/08/22 03:05:55;;;;;;;9.77;5.30;;;25.80;53.00;;;;;;4954863;29;20503;-50
2021/08/22 03:08:21;;;;;;;8.85;5.13;;;25.80;53.10;;;;;;4953308;29;20031;-49
2021/08/22 03:10:46;;;;;;;6.05;4.68;;;25.80;53.10;;;;;;4953868;29;20027;-50
2021/08/22 03:13:13;;;;;;;8.52;5.53;;;25.70;53.10;;;;;;4954352;29;20113;-50
2021/08/22 03:15:39;;;;;;;6.13;5.07;;;25.80;53.20;;;;;;4953838;29;20043;-46
2021/08/22 03:18:04;;;;;;;9.48;5.03;;;25.80;53.20;;;;;;4954157;29;20081;-51
2021/08/22 03:20:30;;;;;;;7.93;4.70;;;25.70;53.10;;;;;;4953074;28;20362;-48
2021/08/22 03:22:56;;;;;;;9.38;4.68;;;25.70;53.00;;;;;;4954267;29;20035;-50
2021/08/22 03:25:21;;;;;;;7.30;4.80;;;25.80;53.00;;;;;;4954081;29;20071;-51
2021/08/22 03:27:47;;;;;;;8.25;5.20;;;25.70;53.00;;;;;;4953595;29;20448;-45
2021/08/22 03:30:13;;;;;;;9.45;4.90;;;25.70;53.00;;;;;;4954066;29;20027;-54
2021/08/22 03:32:39;;;;;;;12.90;4.88;;;25.70;53.10;;;;;;4953394;29;20406;-50
2021/08/22 03:35:05;;;;;;;8.38;5.45;;;25.60;53.20;;;;;;4936927;29;20465;-50
2021/08/22 03:37:31;;;;;;;6.78;4.47;;;25.60;53.20;;;;;;4953496;29;20086;-51
2021/08/22 03:39:56;;;;;;;8.15;4.80;;;25.60;53.20;;;;;;4954059;29;20460;-50
2021/08/22 03:42:22;;;;;;;8.60;5.13;;;25.60;53.20;;;;;;4952869;29;20141;-51
2021/08/22 03:44:48;;;;;;;8.18;5.18;;;25.60;53.20;;;;;;4953319;29;20314;-51
2021/08/22 03:47:13;;;;;;;9.23;4.82;;;25.60;53.30;;;;;;4953995;29;20023;-52
2021/08/22 03:49:39;;;;;;;6.78;4.85;;;25.60;53.30;;;;;;4953355;29;20039;-48
2021/08/22 03:52:05;;;;;;;7.00;5.05;;;25.60;53.30;;;;;;4954337;29;20449;-49
2021/08/22 03:54:30;;;;;;;8.55;4.80;;;25.60;53.20;;;;;;4953042;29;20489;-46
2021/08/22 03:56:56;;;;;;;6.95;4.82;;;25.60;53.20;;;;;;4954071;29;20027;-46
2021/08/22 03:59:22;;;;;;;10.10;4.68;;;25.60;53.20;;;;;;4952705;29;20477;-47
2021/08/22 04:01:48;;;;;;;8.85;5.25;;;25.60;53.20;;;;;;4953394;29;20063;-46
2021/08/22 04:04:13;;;;;;;7.88;5.03;;;25.60;53.10;;;;;;4953691;29;20078;-48
2021/08/22 04:06:46;;;;;;;9.38;5.30;;;25.60;53.20;;;;;;4952093;29;20039;-49
2021/08/22 04:09:12;;;;;;;9.80;4.85;;;25.60;53.30;;;;;;4953833;29;20032;-49
2021/08/22 04:11:38;;;;;;;8.65;4.90;;;25.60;53.30;;;;;;4953366;29;20038;-48
2021/08/22 04:14:08;;;;;;;9.48;4.57;;;25.50;53.30;;;;;;4953839;29;20488;-49
2021/08/22 04:16:34;;;;;;;14.95;4.90;;;25.50;53.40;;;;;;4952047;29;20038;-47
2021/08/22 04:19:00;;;;;;;8.27;5.35;;;25.50;53.40;;;;;;4953405;29;20027;-46
2021/08/22 04:21:25;;;;;;;9.80;5.32;;;25.50;53.40;;;;;;4953523;29;20032;-46
2021/08/22 04:23:51;;;;;;;11.95;4.97;;;25.60;53.40;;;;;;4953167;29;20110;-49
2021/08/22 04:26:17;;;;;;;8.35;5.43;;;25.60;53.40;;;;;;4953817;29;20055;-46
2021/08/22 04:28:42;;;;;;;8.38;5.43;;;25.50;53.40;;;;;;4952922;29;20123;-50
2021/08/22 04:31:08;;;;;;;10.98;5.22;;;25.50;53.50;;;;;;4953440;28;20035;-47
2021/08/22 04:33:34;;;;;;;7.43;5.13;;;25.50;53.40;;;;;;4956628;29;20106;-49
2021/08/22 04:35:59;;;;;;;10.52;5.80;;;25.50;53.40;;;;;;4956944;29;20388;-50
2021/08/22 04:38:25;;;;;;;10.15;5.50;;;25.50;53.40;;;;;;4957099;29;20394;-47
2021/08/22 04:40:51;;;;;;;12.77;6.13;;;25.50;53.50;;;;;;4955100;29;20129;-51
2021/08/22 04:43:16;;;;;;;9.93;5.40;;;25.50;53.60;;;;;;4955946;29;20027;-48
2021/08/22 04:45:42;;;;;;;10.10;5.60;;;25.50;53.60;;;;;;4956993;29;20031;-49
2021/08/22 04:48:08;;;;;;;9.23;5.68;;;25.50;54.00;;;;;;4956782;29;20027;-46
2021/08/22 04:50:33;;;;;;;10.15;5.22;;;25.50;53.70;;;;;;4956430;29;20473;-48
2021/08/22 04:52:59;;;;;;;8.00;5.50;;;25.50;53.70;;;;;;4955606;29;20468;-46
2021/08/22 04:55:25;;;;;;;6.50;5.20;;;25.50;53.70;;;;;;4955511;29;20055;-46
2021/08/22 04:57:50;;;;;;;8.90;5.45;;;25.60;53.60;;;;;;4956405;29;20032;-47
2021/08/22 05:00:16;;;;;;;10.48;5.90;;;25.60;53.50;;;;;;4955196;29;20038;-47
2021/08/22 05:02:42;;;;;;;11.13;5.97;;;25.60;53.40;;;;;;4955951;29;20040;-47
2021/08/22 05:05:08;;;;;;;8.70;5.93;;;25.60;53.40;;;;;;4956675;29;20039;-47
2021/08/22 05:07:34;;;;;;;8.63;6.00;;;25.60;53.30;;;;;;4956501;29;20101;-47
2021/08/22 05:10:00;;;;;;;9.85;6.00;;;25.60;53.30;;;;;;4956691;29;20042;-50
2021/08/22 05:12:25;;;;;;;7.93;5.57;;;25.70;53.20;;;;;;4956249;29;20046;-50
2021/08/22 05:14:51;;;;;;;9.80;6.03;;;25.60;53.10;;;;;;4956379;29;20035;-48
2021/08/22 05:17:17;;;;;;;7.43;5.80;;;25.70;53.00;;;;;;4956447;29;20036;-51
2021/08/22 05:19:42;;;;;;;10.80;6.18;;;25.80;52.90;;;;;;4955992;29;20035;-46
2021/08/22 05:22:08;;;;;;;8.70;5.95;;;25.70;52.50;;;;;;4956560;29;20035;-48
2021/08/22 05:24:34;;;;;;;8.27;6.13;;;25.70;52.50;;;;;;4956663;29;20031;-49
2021/08/22 05:26:59;;;;;;;10.38;6.28;;;25.70;52.40;;;;;;4955499;29;20031;-49
2021/08/22 05:29:25;;;;;;;7.78;6.40;;;25.70;52.30;;;;;;4956643;29;20172;-46
2021/08/22 05:31:51;;;;;;;9.05;5.88;;;25.70;52.20;;;;;;4955584;29;20440;-49
2021/08/22 05:34:16;;;;;;;10.60;6.03;;;25.70;52.10;;;;;;4956237;29;20047;-46
2021/08/22 05:36:43;;;;;;;10.77;6.00;;;25.70;52.10;;;;;;4955716;29;20027;-48
2021/08/22 05:39:08;;;;;;;8.27;5.47;;;25.70;52.10;;;;;;4955760;29;20031;-47
2021/08/22 05:41:34;;;;;;;8.77;5.72;;;25.80;52.10;;;;;;4956056;29;20035;-48
2021/08/22 05:44:00;;;;;;;7.07;5.90;;;25.80;52.00;;;;;;4953258;28;20035;-51
2021/08/22 05:46:26;;;;;;;8.68;5.22;;;25.80;51.90;;;;;;4956127;29;20038;-49
2021/08/22 05:48:52;;;;;;;9.00;5.90;;;25.80;51.90;;;;;;4955300;29;20369;-51
2021/08/22 05:51:21;;;;;;;7.85;5.40;;;25.80;51.90;;;;;;4955909;29;20039;-51
2021/08/22 05:53:48;;;;;;;7.97;5.65;;;25.80;51.80;;;;;;4955269;29;20047;-50
2021/08/22 05:56:14;;;;;;;7.85;6.30;;;25.90;51.70;;;;;;4954552;29;20027;-49
2021/08/22 05:58:40;;;;;;;8.13;6.00;;;25.90;51.60;;;;;;4954002;29;20055;-51
2021/08/22 06:01:07;;;;;;;7.78;6.05;;;25.90;51.50;;;;;;4955364;29;20035;-53
2021/08/22 06:03:33;;;;;;;9.73;6.03;;;25.90;51.40;;;;;;4955719;29;20039;-50
2021/08/22 06:05:58;;;;;;;7.50;5.50;;;25.90;51.30;;;;;;4954892;29;20278;-52
2021/08/22 06:08:24;;;;;;;9.93;5.97;;;25.90;51.20;;;;;;4955941;29;20039;-53
2021/08/22 06:10:50;;;;;;;6.53;5.47;;;25.90;51.20;;;;;;4954852;29;20034;-52
2021/08/22 06:13:15;;;;;;;8.18;5.85;;;25.90;51.20;;;;;;4955235;29;20082;-48
2021/08/22 06:15:41;;;;;;;9.10;5.90;;;25.90;51.10;;;;;;4955097;29;20035;-49
2021/08/22 06:18:07;;;;;;;6.82;5.70;;;26.00;51.10;;;;;;4955175;29;20440;-48
2021/08/22 06:20:32;;;;;;;7.28;5.20;;;26.00;51.10;;;;;;4955039;29;20035;-48
2021/08/22 06:22:58;;;;;;;8.18;4.88;;;26.00;51.00;;;;;;4955131;29;20097;-51
2021/08/22 06:25:24;;;;;;;7.68;5.28;;;26.00;50.90;;;;;;4953919;29;20031;-47
2021/08/22 06:27:49;;;;;;;9.18;5.43;;;26.00;50.80;;;;;;4954437;29;20424;-49
2021/08/22 06:30:15;;;;;;;6.35;5.07;;;26.10;50.90;;;;;;4953866;29;20031;-48
2021/08/22 06:32:41;;;;;;;8.50;5.40;;;26.00;50.80;;;;;;4953789;29;20023;-46
2021/08/22 06:35:07;;;;;;;6.10;4.85;;;26.00;50.80;;;;;;4954973;29;20473;-47
2021/08/22 06:37:33;;;;;;;5.97;4.75;;;26.10;50.80;;;;;;4954804;29;20031;-47
2021/08/22 06:40:00;;;;;;;6.70;5.28;;;26.10;50.70;;;;;;4954231;29;20039;-51
2021/08/22 06:42:27;;;;;;;6.97;5.47;;;26.10;50.70;;;;;;4954937;29;20102;-48
2021/08/22 06:44:53;;;;;;;8.73;5.30;;;26.10;50.60;;;;;;4954066;29;20523;-48
2021/08/22 06:47:19;;;;;;;8.65;5.60;;;26.10;50.60;;;;;;4954492;29;20031;-49
2021/08/22 06:49:45;;;;;;;7.10;4.97;;;26.10;50.60;;;;;;4952839;29;20370;-51
2021/08/22 06:52:12;;;;;;;6.55;5.00;;;26.20;50.60;;;;;;4953426;29;20034;-53
2021/08/22 06:54:41;;;;;;;6.28;5.28;;;26.20;50.50;;;;;;4954342;28;20114;-48
2021/08/22 06:57:08;;;;;;;10.48;5.25;;;26.20;50.50;;;;;;4953413;29;20050;-48
2021/08/22 06:59:33;;;;;;;7.22;5.30;;;26.20;50.40;;;;;;4954725;29;20116;-58
2021/08/22 07:01:59;;;;;;;7.28;4.80;;;26.30;50.50;;;;;;4953737;29;20039;-48
2021/08/22 07:04:25;;;;;;;10.32;5.05;;;26.30;50.50;;;;;;4954055;29;20400;-51
2021/08/22 07:06:51;;;;;;;9.43;5.38;;;26.30;50.50;;;;;;4953698;29;20066;-48
2021/08/22 07:09:16;;;;;;;7.03;5.07;;;26.30;50.50;;;;;;4952637;29;20400;-49
2021/08/22 07:11:43;;;;;;;10.68;5.18;;;26.30;50.40;;;;;;4953455;29;20027;-48
2021/08/22 07:14:09;;;;;;;6.75;4.80;;;26.40;50.40;;;;;;4954391;29;20110;-50
2021/08/22 07:16:35;;;;;;;8.77;4.93;;;26.50;50.30;;;;;;4954978;29;20155;-51
2021/08/22 07:19:01;;;;;;;9.50;5.07;;;26.50;50.10;;;;;;4953912;29;20055;-47
2021/08/22 07:21:28;;;;;;;6.57;5.00;;;26.60;50.00;;;;;;4954047;29;20032;-48
2021/08/22 07:23:54;;;;;;;6.43;4.55;;;26.60;49.70;;;;;;4953144;29;20523;-48
2021/08/22 07:26:19;;;;;;;7.78;4.75;;;26.80;49.80;;;;;;4952748;29;20031;-49
2021/08/22 07:28:45;;;;;;;8.40;5.32;;;26.80;49.70;;;;;;4953853;29;20031;-51
2021/08/22 07:31:11;;;;;;;8.43;5.15;;;26.90;49.50;;;;;;4953618;29;20038;-50
2021/08/22 07:33:36;;;;;;;10.57;5.35;;;26.90;49.20;;;;;;4954056;29;20106;-49
2021/08/22 07:36:03;;;;;;;8.80;5.00;;;26.90;49.90;;;;;;4952070;29;20492;-53
2021/08/22 07:38:29;;;;;;;7.40;4.50;;;27.00;49.10;;;;;;4953755;29;20465;-53
2021/08/22 07:40:55;;;;;;;12.43;4.95;;;27.00;48.90;;;;;;4953101;29;20035;-51
2021/08/22 07:43:21;;;;;;;6.28;5.28;;;27.00;49.00;;;;;;4953552;29;20113;-50
2021/08/22 07:45:48;;;;;;;13.15;5.28;;;27.10;48.90;;;;;;4953468;29;20529;-52
2021/08/22 07:48:14;;;;;;;7.82;5.25;;;27.10;48.90;;;;;;4953594;29;20042;-49
2021/08/22 07:50:39;;;;;;;10.15;5.72;;;27.10;48.70;;;;;;4954085;29;20039;-49
2021/08/22 07:53:05;;;;;;;8.95;6.20;;;27.10;48.80;;;;;;4953453;29;20034;-51
2021/08/22 07:55:31;;;;;;;9.13;5.82;;;27.10;48.90;;;;;;4953322;29;20516;-50
2021/08/22 07:57:57;;;;;;;6.47;4.78;;;27.10;49.00;;;;;;4952966;29;20082;-51
2021/08/22 08:00:22;;;;;;;9.63;5.13;;;27.10;49.00;;;;;;4953320;29;20103;-49
2021/08/22 08:02:49;;;;;;;6.80;4.93;;;27.10;49.00;;;;;;4952391;29;20032;-47
2021/08/22 08:05:15;;;;;;;9.07;5.63;;;27.20;49.10;;;;;;4953897;29;20070;-47
2021/08/22 08:07:40;;;;;;;7.57;5.82;;;27.20;49.20;;;;;;4955688;28;20023;-49
2021/08/22 08:10:08;;;;;;;10.27;6.30;;;27.20;49.20;;;;;;4956930;29;20393;-50
2021/08/22 08:12:34;;;;;;;14.40;5.70;;;27.20;49.10;;;;;;4957307;29;20038;-49
2021/08/22 08:15:00;;;;;;;8.15;5.32;;;27.20;49.00;;;;;;4956742;29;20067;-50
2021/08/22 08:17:26;;;;;;;7.95;4.70;;;27.20;49.10;;;;;;4957083;29;20063;-48
2021/08/22 08:19:52;;;;;;;9.15;5.65;;;27.30;49.10;;;;;;4956369;29;20463;-49
2021/08/22 08:22:18;;;;;;;6.75;5.22;;;27.20;49.20;;;;;;4956946;29;20028;-49
2021/08/22 08:24:43;;;;;;;8.40;5.35;;;27.30;49.20;;;;;;4956971;29;20102;-52
2021/08/22 08:27:09;;;;;;;6.72;5.32;;;27.30;49.20;;;;;;4956632;29;20031;-50
2021/08/22 08:29:35;;;;;;;10.00;5.22;;;27.30;49.10;;;;;;4957215;29;20059;-53
2021/08/22 08:32:01;;;;;;;7.53;5.05;;;27.40;49.20;;;;;;4955115;29;20375;-49
2021/08/22 08:34:27;;;;;;;8.75;5.63;;;27.40;49.10;;;;;;4956355;29;20078;-50
2021/08/22 08:36:53;;;;;;;11.88;6.68;;;27.40;49.20;;;;;;4955684;29;20079;-49
2021/08/22 08:39:19;;;;;;;9.45;5.68;;;27.50;49.00;;;;;;4956218;29;20027;-51
2021/08/22 08:41:45;;;;;;;6.90;4.85;;;27.40;48.90;;;;;;4956144;29;20046;-48
2021/08/22 08:44:12;;;;;;;7.43;5.07;;;27.40;48.90;;;;;;4955497;29;20106;-50
2021/08/22 08:46:48;;;;;;;6.63;4.80;;;27.50;49.00;;;;;;4956261;29;20054;-46
2021/08/22 08:49:35;;;;;;;11.07;5.38;;;27.50;49.00;;;;;;4955172;29;20023;-46
2021/08/22 08:52:38;;;;;;;9.50;5.80;;;27.50;49.00;;;;;;4954013;29;20047;-50
2021/08/22 08:55:30;;;;;;;8.40;5.40;;;27.50;49.20;;;;;;4955338;29;20503;-52
2021/08/22 08:57:58;;;;;;;6.13;5.25;;;27.50;49.10;;;;;;4955333;29;20050;-52
2021/08/22 09:00:25;;;;;;;8.30;5.20;;;27.60;49.10;;;;;;4954203;29;20073;-49
2021/08/22 09:02:51;;;;;;;9.68;6.32;;;27.60;49.10;;;;;;4938431;29;20065;-52
2021/08/22 09:05:53;;;;;;;9.23;6.10;;;27.60;49.20;;;;;;4953946;29;20078;-50
2021/08/22 09:08:44;;;;;;;9.73;6.30;;;27.60;49.40;;;;;;4955861;29;20097;-50
2021/08/22 09:11:15;;;;;;;11.82;6.28;;;27.60;49.40;;;;;;4955818;29;20035;-46
2021/08/22 09:14:00;;;;;;;11.15;6.55;;;27.60;49.50;;;;;;4955948;29;20069;-46
2021/08/22 09:17:00;;;;;;;9.80;6.20;;;27.60;49.50;;;;;;4955898;29;20031;-48
2021/08/22 09:20:17;;;;;;;7.47;6.05;;;27.60;49.60;;;;;;4914129;29;20032;-48
2021/08/22 09:23:15;;;;;;;6.80;5.35;;;27.60;49.50;;;;;;4953914;29;20035;-50
2021/08/22 09:26:18;;;;;;;7.30;6.13;;;27.70;49.40;;;;;;4953968;29;20055;-51
2021/08/22 09:29:21;;;;;;;7.75;6.72;;;27.70;49.30;;;;;;4955617;29;20031;-49
2021/08/22 09:32:24;;;;;;;10.02;6.32;;;27.70;49.40;;;;;;4955073;29;20031;-53
2021/08/22 09:35:14;;;;;;;9.90;6.32;;;27.70;49.30;;;;;;4955329;29;20035;-52
2021/08/22 09:38:17;;;;;;;8.40;5.90;;;27.70;49.30;;;;;;4953986;29;20437;-53
2021/08/22 09:41:20;;;;;;;8.68;5.90;;;27.70;49.30;;;;;;4953887;29;20114;-52
2021/08/22 09:44:23;;;;;;;11.90;7.28;;;27.80;49.30;;;;;;4953966;29;20445;-52
2021/08/22 09:47:43;;;;;;;10.07;6.68;;;27.80;49.40;;;;;;4955062;29;20031;-50
2021/08/22 09:50:39;;;;;;;7.40;6.07;;;27.80;49.30;;;;;;4920502;29;20504;-53
2021/08/22 09:53:19;;;;;;;7.97;6.35;;;27.80;49.10;;;;;;4954537;29;20027;-51
2021/08/22 09:56:10;;;;;;;7.00;5.63;;;27.80;49.10;;;;;;4953122;29;20504;-52
2021/08/22 09:58:51;;;;;;;12.00;6.30;;;27.80;49.10;;;;;;4954649;29;20039;-54
2021/08/22 10:01:29;;;;;;;10.82;5.13;;;27.90;49.30;;;;;;4954378;29;20038;-54
2021/08/22 10:04:13;;;;;;;13.43;5.75;;;27.90;49.30;;;;;;4954541;29;20114;-53
2021/08/22 10:06:44;;;;;;;7.28;5.50;;;27.90;49.50;;;;;;4953390;29;20027;-49
2021/08/22 10:09:13;;;;;;;9.82;5.45;;;27.90;50.00;;;;;;4953716;29;20046;-50
2021/08/22 10:11:49;;;;;;;10.75;5.22;;;28.00;50.20;;;;;;4954416;29;20027;-50
2021/08/22 10:14:15;;;;;;;7.68;5.15;;;28.00;50.10;;;;;;4953901;29;20227;-47
2021/08/22 10:16:41;;;;;;;6.43;4.68;;;28.00;49.90;;;;;;4953057;29;20031;-47
2021/08/22 10:19:08;;;;;;;7.82;5.00;;;28.10;50.00;;;;;;4954019;29;20037;-48
2021/08/22 10:21:34;;;;;;;9.90;5.15;;;28.10;50.20;;;;;;4954708;29;20469;-48
2021/08/22 10:24:10;;;;;;;8.82;5.20;;;28.10;50.10;;;;;;4953603;29;20058;-53
2021/08/22 10:26:50;;;;;;;9.82;5.00;;;28.10;50.10;;;;;;4954317;29;20058;-50
2021/08/22 10:29:23;;;;;;;7.30;4.75;;;28.10;50.10;;;;;;4953815;28;20175;-49
2021/08/22 10:31:49;;;;;;;7.43;5.40;;;28.20;50.10;;;;;;4954741;29;20122;-49
2021/08/22 10:34:17;;;;;;;7.25;5.18;;;28.20;50.00;;;;;;4952826;29;20425;-53
2021/08/22 10:36:43;;;;;;;9.77;5.13;;;28.20;49.90;;;;;;4954524;29;20052;-47
2021/08/22 10:39:22;;;;;;;7.18;5.15;;;28.30;50.00;;;;;;4952782;29;20121;-51
2021/08/22 10:41:51;;;;;;;7.18;5.28;;;28.20;49.90;;;;;;4954351;29;20079;-54
2021/08/22 10:44:41;;;;;;;6.80;4.97;;;28.30;50.00;;;;;;4953707;29;20202;-53
2021/08/22 10:47:08;;;;;;;5.70;4.97;;;28.30;50.10;;;;;;4946865;29;20036;-48
2021/08/22 10:49:53;;;;;;;10.85;5.53;;;28.30;50.00;;;;;;4952065;29;20027;-53
2021/08/22 10:52:23;;;;;;;8.88;5.13;;;28.30;50.10;;;;;;4952987;29;20076;-50
2021/08/22 10:55:10;;;;;;;7.10;5.30;;;28.30;50.10;;;;;;4952730;29;20054;-51
2021/08/22 10:57:45;;;;;;;7.50;5.50;;;28.30;50.00;;;;;;4952642;29;20027;-47
2021/08/22 11:00:26;;;;;;;8.02;5.60;;;28.40;50.10;;;;;;4952013;29;20178;-52
2021/08/22 11:02:55;;;;;;;7.45;5.40;;;28.40;50.10;;;;;;4954261;29;20109;-49
2021/08/22 11:05:23;;;;;;;9.38;5.68;;;28.40;50.10;;;;;;4953385;29;20046;-48
2021/08/22 11:07:54;;;;;;;7.57;5.60;;;28.40;50.10;;;;;;4953515;29;20027;-50
2021/08/22 11:10:22;;;;;;;11.45;5.45;;;28.40;50.00;;;;;;4951730;29;20097;-50
2021/08/22 11:12:52;;;;;;;8.95;5.25;;;28.40;50.10;;;;;;4952238;29;20154;-49
2021/08/22 11:15:36;;;;;;;8.82;5.90;;;28.50;50.10;;;;;;4953362;29;20114;-51
2021/08/22 11:18:02;;;;;;;8.73;5.65;;;28.40;50.10;;;;;;4952998;29;20031;-54
2021/08/22 11:20:30;;;;;;;9.57;6.18;;;28.50;50.10;;;;;;4952568;29;20035;-49
2021/08/22 11:23:21;;;;;;;8.55;6.15;;;28.50;50.20;;;;;;4952697;29;20035;-46
2021/08/22 11:25:51;;;;;;;9.43;5.30;;;28.50;50.40;;;;;;4952753;29;20034;-45
2021/08/22 11:28:18;;;;;;;7.43;5.60;;;28.50;50.40;;;;;;4953115;29;20528;-46
2021/08/22 11:30:46;;;;;;;8.20;5.88;;;28.60;50.40;;;;;;4953653;29;20047;-48
2021/08/22 11:33:13;;;;;;;12.27;6.00;;;28.60;50.30;;;;;;4950844;29;20122;-50
2021/08/22 11:35:49;;;;;;;8.45;5.72;;;28.60;50.40;;;;;;4951447;29;20034;-59
2021/08/22 11:38:16;;;;;;;11.15;5.80;;;28.60;50.70;;;;;;4952806;29;20027;-58
2021/08/22 11:40:43;;;;;;;9.38;5.55;;;28.60;50.50;;;;;;4950975;28;20038;-59
2021/08/22 11:43:10;;;;;;;8.32;5.72;;;28.60;50.70;;;;;;4951974;29;20035;-58
2021/08/22 11:45:42;;;;;;;11.10;6.28;;;28.60;50.80;;;;;;4953002;29;20054;-58
2021/08/22 11:48:15;;;;;;;8.95;5.75;;;28.60;50.90;;;;;;4952680;29;20051;-59
2021/08/22 11:50:41;;;;;;;8.07;6.20;;;28.60;50.90;;;;;;4952125;29;20042;-55
2021/08/22 11:53:08;;;;;;;8.05;6.00;;;28.70;50.80;;;;;;4952434;29;20087;-54
2021/08/22 11:55:37;;;;;;;8.40;6.00;;;28.70;50.90;;;;;;4951512;29;20050;-54
2021/08/22 11:58:25;;;;;;;10.35;5.80;;;28.70;51.00;;;;;;4951112;29;20031;-52
2021/08/22 12:00:55;;;;;;;12.35;5.75;;;28.70;51.10;;;;;;4952965;29;20460;-57
2021/08/22 12:03:26;;;;;;;11.60;5.82;;;28.80;51.00;;;;;;4951411;29;20031;-58
2021/08/22 12:06:01;;;;;;;11.18;6.45;;;28.80;51.00;;;;;;4951998;29;20087;-48
2021/08/22 12:08:31;;;;;;;9.75;5.82;;;28.90;50.90;;;;;;4951655;29;20039;-48
2021/08/22 12:11:15;;;;;;;10.07;6.20;;;28.90;50.90;;;;;;4952035;29;20110;-47
2021/08/22 12:13:44;;;;;;;10.05;6.40;;;28.90;50.90;;;;;;4952733;29;20473;-50
2021/08/22 12:16:33;;;;;;;7.38;6.20;;;28.90;50.80;;;;;;4950528;29;20065;-53
2021/08/22 12:19:20;;;;;;;8.00;5.60;;;28.90;50.90;;;;;;4953110;29;20046;-49
2021/08/22 12:21:48;;;;;;;9.30;6.03;;;28.90;50.90;;;;;;4951340;29;20125;-48
2021/08/22 12:24:28;;;;;;;9.02;6.03;;;29.00;50.70;;;;;;4951342;29;20031;-49
2021/08/22 12:26:56;;;;;;;9.20;5.47;;;28.90;50.70;;;;;;4951525;29;20050;-50
2021/08/22 12:29:28;;;;;;;8.23;5.75;;;29.00;50.70;;;;;;4950821;29;20027;-47
2021/08/22 12:31:55;;;;;;;9.73;5.93;;;29.00;50.70;;;;;;4935730;29;20027;-51
2021/08/22 12:34:22;;;;;;;8.80;5.85;;;29.00;50.70;;;;;;4952171;29;20031;-48
2021/08/22 12:36:48;;;;;;;7.80;6.40;;;29.00;50.90;;;;;;4952703;29;20031;-51
2021/08/22 12:39:19;;;;;;;8.25;5.72;;;29.00;50.70;;;;;;4950834;29;20074;-48
2021/08/22 12:41:52;;;;;;;14.82;7.00;;;29.00;51.00;;;;;;4952837;29;20039;-53
2021/08/22 12:44:28;;;;;;;19.63;7.22;;;29.00;51.40;;;;;;4950788;29;20485;-49
2021/08/22 12:46:54;;;;;;;12.73;7.15;;;29.00;51.30;;;;;;4951267;29;20468;-50
2021/08/22 12:49:21;;;;;;;12.27;7.15;;;29.00;51.20;;;;;;4949547;29;20030;-51
2021/08/22 12:51:50;;;;;;;9.93;6.35;;;29.00;51.00;;;;;;4950126;29;20066;-50
2021/08/22 12:54:17;;;;;;;9.18;5.88;;;29.10;50.50;;;;;;4954275;28;20055;-51
2021/08/22 12:56:43;;;;;;;8.48;6.22;;;29.10;50.40;;;;;;4955771;29;20030;-51
2021/08/22 12:59:09;;;;;;;7.28;5.95;;;29.10;50.40;;;;;;4955065;29;20023;-50
2021/08/22 13:01:35;;;;;;;8.35;5.72;;;29.00;50.40;;;;;;4955290;29;20364;-49